sensor_id;sensor_type;location;lat;lon;timestamp;P1;durP1;ratioP1;P2;durP2;ratioP2
9934;SDS011;5006;41.828;23.478;2024-03-06T00:00:03;7.63;;;6.82;;
9934;SDS011;5006;41.828;23.478;2024-03-06T00:01:12;7.18;;;6.45;;
9934;SDS011;5006;41.828;23.478;2024-03-06T00:02:19;8.25;;;6.88;;
9934;SDS011;5006;41.828;23.478;2024-03-06T00:03:25;8.70;;;7.03;;
9934;SDS011;5006;41.828;23.478;2024-03-06T00:04:31;7.85;;;6.72;;
9934;SDS011;5006;41.828;23.478;2024-03-06T00:05:36;7.57;;;6.78;;
9934;SDS011;5006;41.828;23.478;2024-03-06T00:06:42;7.32;;;6.32;;
9934;SDS011;5006;41.828;23.478;2024-03-06T00:07:48;7.80;;;7.00;;
9934;SDS011;5006;41.828;23.478;2024-03-06T00:08:55;8.38;;;7.07;;
9934;SDS011;5006;41.828;23.478;2024-03-06T00:10:01;7.22;;;6.50;;
9934;SDS011;5006;41.828;23.478;2024-03-06T00:11:09;8.02;;;6.68;;
9934;SDS011;5006;41.828;23.478;2024-03-06T00:12:17;7.55;;;6.78;;
9934;SDS011;5006;41.828;23.478;2024-03-06T00:13:24;9.50;;;6.95;;
9934;SDS011;5006;41.828;23.478;2024-03-06T00:14:30;7.82;;;7.03;;
9934;SDS011;5006;41.828;23.478;2024-03-06T00:15:37;7.07;;;6.43;;
9934;SDS011;5006;41.828;23.478;2024-03-06T00:16:43;8.32;;;6.57;;
9934;SDS011;5006;41.828;23.478;2024-03-06T00:17:49;6.75;;;6.13;;
9934;SDS011;5006;41.828;23.478;2024-03-06T00:18:53;7.35;;;6.70;;
9934;SDS011;5006;41.828;23.478;2024-03-06T00:20:00;7.05;;;6.32;;
9934;SDS011;5006;41.828;23.478;2024-03-06T00:21:05;7.75;;;6.72;;
9934;SDS011;5006;41.828;23.478;2024-03-06T00:22:12;7.90;;;7.10;;
9934;SDS011;5006;41.828;23.478;2024-03-06T00:23:17;7.03;;;6.25;;
9934;SDS011;5006;41.828;23.478;2024-03-06T00:24:24;9.45;;;7.05;;
9934;SDS011;5006;41.828;23.478;2024-03-06T00:25:30;7.60;;;6.80;;
9934;SDS011;5006;41.828;23.478;2024-03-06T00:26:37;8.20;;;7.00;;
9934;SDS011;5006;41.828;23.478;2024-03-06T00:27:44;9.88;;;7.07;;
9934;SDS011;5006;41.828;23.478;2024-03-06T00:28:49;7.85;;;6.88;;
9934;SDS011;5006;41.828;23.478;2024-03-06T00:29:56;8.48;;;6.68;;
9934;SDS011;5006;41.828;23.478;2024-03-06T00:31:03;7.47;;;6.57;;
9934;SDS011;5006;41.828;23.478;2024-03-06T00:32:10;7.72;;;6.82;;
9934;SDS011;5006;41.828;23.478;2024-03-06T00:33:17;8.70;;;6.60;;
9934;SDS011;5006;41.828;23.478;2024-03-06T00:34:22;10.40;;;6.82;;
9934;SDS011;5006;41.828;23.478;2024-03-06T00:35:28;8.95;;;6.85;;
9934;SDS011;5006;41.828;23.478;2024-03-06T00:36:33;8.48;;;7.50;;
9934;SDS011;5006;41.828;23.478;2024-03-06T00:37:40;8.82;;;6.88;;
9934;SDS011;5006;41.828;23.478;2024-03-06T00:38:45;8.13;;;7.28;;
9934;SDS011;5006;41.828;23.478;2024-03-06T00:39:52;8.07;;;7.25;;
9934;SDS011;5006;41.828;23.478;2024-03-06T00:40:57;7.88;;;7.07;;
9934;SDS011;5006;41.828;23.478;2024-03-06T00:42:04;9.70;;;7.15;;
9934;SDS011;5006;41.828;23.478;2024-03-06T00:43:10;8.30;;;6.47;;
9934;SDS011;5006;41.828;23.478;2024-03-06T00:44:17;8.10;;;6.95;;
9934;SDS011;5006;41.828;23.478;2024-03-06T00:45:23;8.30;;;7.35;;
9934;SDS011;5006;41.828;23.478;2024-03-06T00:46:30;8.52;;;7.22;;
9934;SDS011;5006;41.828;23.478;2024-03-06T00:47:36;7.68;;;6.85;;
9934;SDS011;5006;41.828;23.478;2024-03-06T00:48:43;7.70;;;6.90;;
9934;SDS011;5006;41.828;23.478;2024-03-06T00:49:49;9.18;;;7.25;;
9934;SDS011;5006;41.828;23.478;2024-03-06T00:50:55;8.82;;;6.70;;
9934;SDS011;5006;41.828;23.478;2024-03-06T00:52:00;9.52;;;7.20;;
9934;SDS011;5006;41.828;23.478;2024-03-06T00:53:07;8.40;;;6.90;;
9934;SDS011;5006;41.828;23.478;2024-03-06T00:54:12;7.88;;;6.78;;
9934;SDS011;5006;41.828;23.478;2024-03-06T00:55:18;7.72;;;6.93;;
9934;SDS011;5006;41.828;23.478;2024-03-06T00:56:24;8.13;;;7.32;;
9934;SDS011;5006;41.828;23.478;2024-03-06T00:57:30;9.30;;;7.00;;
9934;SDS011;5006;41.828;23.478;2024-03-06T00:58:35;7.60;;;6.90;;
9934;SDS011;5006;41.828;23.478;2024-03-06T00:59:42;10.00;;;7.45;;
9934;SDS011;5006;41.828;23.478;2024-03-06T01:00:49;7.75;;;6.95;;
9934;SDS011;5006;41.828;23.478;2024-03-06T01:01:56;10.18;;;7.47;;
9934;SDS011;5006;41.828;23.478;2024-03-06T01:03:02;9.52;;;7.57;;
9934;SDS011;5006;41.828;23.478;2024-03-06T01:04:09;7.90;;;7.10;;
9934;SDS011;5006;41.828;23.478;2024-03-06T01:05:15;10.95;;;7.20;;
9934;SDS011;5006;41.828;23.478;2024-03-06T01:06:22;10.50;;;6.80;;
9934;SDS011;5006;41.828;23.478;2024-03-06T01:07:27;8.30;;;6.90;;
9934;SDS011;5006;41.828;23.478;2024-03-06T01:08:34;10.20;;;7.95;;
9934;SDS011;5006;41.828;23.478;2024-03-06T01:09:40;8.00;;;7.20;;
9934;SDS011;5006;41.828;23.478;2024-03-06T01:10:46;9.32;;;8.35;;
9934;SDS011;5006;41.828;23.478;2024-03-06T01:11:51;9.35;;;7.53;;
9934;SDS011;5006;41.828;23.478;2024-03-06T01:12:57;9.00;;;7.43;;
9934;SDS011;5006;41.828;23.478;2024-03-06T01:14:02;8.60;;;7.68;;
9934;SDS011;5006;41.828;23.478;2024-03-06T01:15:09;9.55;;;7.68;;
9934;SDS011;5006;41.828;23.478;2024-03-06T01:16:16;8.02;;;7.18;;
9934;SDS011;5006;41.828;23.478;2024-03-06T01:17:23;9.57;;;7.70;;
9934;SDS011;5006;41.828;23.478;2024-03-06T01:18:29;8.65;;;7.57;;
9934;SDS011;5006;41.828;23.478;2024-03-06T01:19:36;8.43;;;7.53;;
9934;SDS011;5006;41.828;23.478;2024-03-06T01:20:42;8.20;;;7.35;;
9934;SDS011;5006;41.828;23.478;2024-03-06T01:21:49;10.40;;;8.25;;
9934;SDS011;5006;41.828;23.478;2024-03-06T01:22:55;8.80;;;7.85;;
9934;SDS011;5006;41.828;23.478;2024-03-06T01:24:02;8.38;;;7.25;;
9934;SDS011;5006;41.828;23.478;2024-03-06T01:25:08;9.10;;;7.80;;
9934;SDS011;5006;41.828;23.478;2024-03-06T01:26:15;8.75;;;7.65;;
9934;SDS011;5006;41.828;23.478;2024-03-06T01:27:21;10.10;;;8.00;;
9934;SDS011;5006;41.828;23.478;2024-03-06T01:28:31;10.18;;;7.28;;
9934;SDS011;5006;41.828;23.478;2024-03-06T01:29:36;8.57;;;7.78;;
9934;SDS011;5006;41.828;23.478;2024-03-06T01:30:42;9.95;;;8.23;;
9934;SDS011;5006;41.828;23.478;2024-03-06T01:31:49;9.48;;;7.85;;
9934;SDS011;5006;41.828;23.478;2024-03-06T01:32:56;9.88;;;7.85;;
9934;SDS011;5006;41.828;23.478;2024-03-06T01:34:02;8.15;;;7.35;;
9934;SDS011;5006;41.828;23.478;2024-03-06T01:35:08;9.52;;;7.63;;
9934;SDS011;5006;41.828;23.478;2024-03-06T01:36:14;9.65;;;7.80;;
9934;SDS011;5006;41.828;23.478;2024-03-06T01:37:20;9.23;;;7.68;;
9934;SDS011;5006;41.828;23.478;2024-03-06T01:38:25;10.57;;;7.32;;
9934;SDS011;5006;41.828;23.478;2024-03-06T01:39:31;8.30;;;7.50;;
9934;SDS011;5006;41.828;23.478;2024-03-06T01:40:42;8.57;;;7.07;;
9934;SDS011;5006;41.828;23.478;2024-03-06T01:41:49;9.63;;;7.22;;
9934;SDS011;5006;41.828;23.478;2024-03-06T01:42:56;8.48;;;7.32;;
9934;SDS011;5006;41.828;23.478;2024-03-06T01:44:02;9.00;;;7.47;;
9934;SDS011;5006;41.828;23.478;2024-03-06T01:45:08;8.18;;;7.13;;
9934;SDS011;5006;41.828;23.478;2024-03-06T01:46:15;8.45;;;7.57;;
9934;SDS011;5006;41.828;23.478;2024-03-06T01:47:22;7.90;;;7.10;;
9934;SDS011;5006;41.828;23.478;2024-03-06T01:48:29;10.02;;;7.78;;
9934;SDS011;5006;41.828;23.478;2024-03-06T01:49:36;9.40;;;7.65;;
9934;SDS011;5006;41.828;23.478;2024-03-06T01:50:43;9.20;;;7.50;;
9934;SDS011;5006;41.828;23.478;2024-03-06T01:51:49;8.93;;;7.82;;
9934;SDS011;5006;41.828;23.478;2024-03-06T01:52:59;10.57;;;8.02;;
9934;SDS011;5006;41.828;23.478;2024-03-06T01:54:05;10.43;;;7.82;;
9934;SDS011;5006;41.828;23.478;2024-03-06T01:55:13;9.15;;;7.15;;
9934;SDS011;5006;41.828;23.478;2024-03-06T01:56:20;7.93;;;7.13;;
9934;SDS011;5006;41.828;23.478;2024-03-06T01:57:27;8.00;;;7.20;;
9934;SDS011;5006;41.828;23.478;2024-03-06T01:58:33;8.98;;;7.05;;
9934;SDS011;5006;41.828;23.478;2024-03-06T01:59:40;9.55;;;7.63;;
9934;SDS011;5006;41.828;23.478;2024-03-06T02:01:04;9.18;;;7.30;;
9934;SDS011;5006;41.828;23.478;2024-03-06T02:02:11;10.60;;;6.95;;
9934;SDS011;5006;41.828;23.478;2024-03-06T02:03:17;10.32;;;7.43;;
9934;SDS011;5006;41.828;23.478;2024-03-06T02:04:25;7.78;;;6.97;;
9934;SDS011;5006;41.828;23.478;2024-03-06T02:05:32;8.27;;;7.10;;
9934;SDS011;5006;41.828;23.478;2024-03-06T02:06:39;8.35;;;6.72;;
9934;SDS011;5006;41.828;23.478;2024-03-06T02:07:45;9.43;;;7.15;;
9934;SDS011;5006;41.828;23.478;2024-03-06T02:08:53;9.65;;;7.47;;
9934;SDS011;5006;41.828;23.478;2024-03-06T02:09:59;8.15;;;7.22;;
9934;SDS011;5006;41.828;23.478;2024-03-06T02:11:06;8.20;;;7.10;;
9934;SDS011;5006;41.828;23.478;2024-03-06T02:12:12;8.20;;;7.13;;
9934;SDS011;5006;41.828;23.478;2024-03-06T02:13:19;9.20;;;6.88;;
9934;SDS011;5006;41.828;23.478;2024-03-06T02:14:25;8.23;;;7.20;;
9934;SDS011;5006;41.828;23.478;2024-03-06T02:15:32;8.23;;;6.90;;
9934;SDS011;5006;41.828;23.478;2024-03-06T02:16:37;8.77;;;7.50;;
9934;SDS011;5006;41.828;23.478;2024-03-06T02:17:44;9.43;;;6.93;;
9934;SDS011;5006;41.828;23.478;2024-03-06T02:18:55;8.13;;;7.03;;
9934;SDS011;5006;41.828;23.478;2024-03-06T02:20:02;8.10;;;6.75;;
9934;SDS011;5006;41.828;23.478;2024-03-06T02:21:12;8.70;;;7.15;;
9934;SDS011;5006;41.828;23.478;2024-03-06T02:22:19;7.88;;;7.10;;
9934;SDS011;5006;41.828;23.478;2024-03-06T02:23:24;8.95;;;7.00;;
9934;SDS011;5006;41.828;23.478;2024-03-06T02:24:31;7.18;;;6.50;;
9934;SDS011;5006;41.828;23.478;2024-03-06T02:25:37;8.15;;;6.85;;
9934;SDS011;5006;41.828;23.478;2024-03-06T02:26:43;6.95;;;6.25;;
9934;SDS011;5006;41.828;23.478;2024-03-06T02:27:50;8.23;;;6.93;;
9934;SDS011;5006;41.828;23.478;2024-03-06T02:28:55;7.68;;;6.78;;
9934;SDS011;5006;41.828;23.478;2024-03-06T02:30:02;7.22;;;6.50;;
9934;SDS011;5006;41.828;23.478;2024-03-06T02:31:08;9.45;;;7.18;;
9934;SDS011;5006;41.828;23.478;2024-03-06T02:32:15;8.60;;;6.40;;
9934;SDS011;5006;41.828;23.478;2024-03-06T02:33:23;7.50;;;6.80;;
9934;SDS011;5006;41.828;23.478;2024-03-06T02:34:30;7.25;;;6.55;;
9934;SDS011;5006;41.828;23.478;2024-03-06T02:35:35;8.35;;;6.95;;
9934;SDS011;5006;41.828;23.478;2024-03-06T02:36:42;8.65;;;6.80;;
9934;SDS011;5006;41.828;23.478;2024-03-06T02:37:49;8.45;;;6.47;;
9934;SDS011;5006;41.828;23.478;2024-03-06T02:38:55;6.65;;;5.95;;
9934;SDS011;5006;41.828;23.478;2024-03-06T02:40:02;7.22;;;6.35;;
9934;SDS011;5006;41.828;23.478;2024-03-06T02:41:11;7.03;;;6.32;;
9934;SDS011;5006;41.828;23.478;2024-03-06T02:42:20;8.32;;;6.15;;
9934;SDS011;5006;41.828;23.478;2024-03-06T02:43:25;6.68;;;6.05;;
9934;SDS011;5006;41.828;23.478;2024-03-06T02:44:31;7.53;;;5.72;;
9934;SDS011;5006;41.828;23.478;2024-03-06T02:45:36;6.43;;;5.82;;
9934;SDS011;5006;41.828;23.478;2024-03-06T02:46:46;5.90;;;5.30;;
9934;SDS011;5006;41.828;23.478;2024-03-06T02:47:52;7.70;;;6.47;;
9934;SDS011;5006;41.828;23.478;2024-03-06T02:48:59;6.55;;;5.85;;
9934;SDS011;5006;41.828;23.478;2024-03-06T02:50:06;6.32;;;5.65;;
9934;SDS011;5006;41.828;23.478;2024-03-06T02:51:17;6.95;;;6.25;;
9934;SDS011;5006;41.828;23.478;2024-03-06T02:52:24;8.13;;;6.18;;
9934;SDS011;5006;41.828;23.478;2024-03-06T02:53:30;6.22;;;5.63;;
9934;SDS011;5006;41.828;23.478;2024-03-06T02:54:37;6.57;;;5.43;;
9934;SDS011;5006;41.828;23.478;2024-03-06T02:55:42;6.15;;;5.55;;
9934;SDS011;5006;41.828;23.478;2024-03-06T02:56:50;6.05;;;5.50;;
9934;SDS011;5006;41.828;23.478;2024-03-06T02:57:56;9.30;;;6.00;;
9934;SDS011;5006;41.828;23.478;2024-03-06T02:59:02;7.43;;;5.85;;
9934;SDS011;5006;41.828;23.478;2024-03-06T03:00:08;8.43;;;5.82;;
9934;SDS011;5006;41.828;23.478;2024-03-06T03:01:17;6.50;;;5.80;;
9934;SDS011;5006;41.828;23.478;2024-03-06T03:02:22;7.60;;;5.78;;
9934;SDS011;5006;41.828;23.478;2024-03-06T03:03:29;6.68;;;5.70;;
9934;SDS011;5006;41.828;23.478;2024-03-06T03:04:35;7.93;;;5.70;;
9934;SDS011;5006;41.828;23.478;2024-03-06T03:05:42;7.40;;;5.25;;
9934;SDS011;5006;41.828;23.478;2024-03-06T03:06:48;6.93;;;5.55;;
9934;SDS011;5006;41.828;23.478;2024-03-06T03:07:55;5.80;;;4.72;;
9934;SDS011;5006;41.828;23.478;2024-03-06T03:09:01;6.18;;;5.57;;
9934;SDS011;5006;41.828;23.478;2024-03-06T03:10:08;5.68;;;4.78;;
9934;SDS011;5006;41.828;23.478;2024-03-06T03:11:15;6.07;;;4.85;;
9934;SDS011;5006;41.828;23.478;2024-03-06T03:12:22;6.85;;;4.88;;
9934;SDS011;5006;41.828;23.478;2024-03-06T03:13:28;6.20;;;5.07;;
9934;SDS011;5006;41.828;23.478;2024-03-06T03:14:36;6.30;;;4.72;;
9934;SDS011;5006;41.828;23.478;2024-03-06T03:15:42;7.30;;;5.43;;
9934;SDS011;5006;41.828;23.478;2024-03-06T03:16:48;6.07;;;4.80;;
9934;SDS011;5006;41.828;23.478;2024-03-06T03:17:54;5.78;;;4.65;;
9934;SDS011;5006;41.828;23.478;2024-03-06T03:19:01;5.20;;;4.70;;
9934;SDS011;5006;41.828;23.478;2024-03-06T03:20:06;5.50;;;4.90;;
9934;SDS011;5006;41.828;23.478;2024-03-06T03:21:15;5.03;;;4.47;;
9934;SDS011;5006;41.828;23.478;2024-03-06T03:22:21;5.57;;;4.38;;
9934;SDS011;5006;41.828;23.478;2024-03-06T03:23:30;6.13;;;5.00;;
9934;SDS011;5006;41.828;23.478;2024-03-06T03:24:35;5.53;;;4.60;;
9934;SDS011;5006;41.828;23.478;2024-03-06T03:25:42;5.30;;;4.80;;
9934;SDS011;5006;41.828;23.478;2024-03-06T03:26:48;5.60;;;4.05;;
9934;SDS011;5006;41.828;23.478;2024-03-06T03:27:55;4.70;;;4.05;;
9934;SDS011;5006;41.828;23.478;2024-03-06T03:29:00;4.88;;;4.25;;
9934;SDS011;5006;41.828;23.478;2024-03-06T03:30:07;6.20;;;4.55;;
9934;SDS011;5006;41.828;23.478;2024-03-06T03:31:14;4.78;;;4.30;;
9934;SDS011;5006;41.828;23.478;2024-03-06T03:32:21;5.88;;;4.35;;
9934;SDS011;5006;41.828;23.478;2024-03-06T03:33:26;5.35;;;4.00;;
9934;SDS011;5006;41.828;23.478;2024-03-06T03:34:32;5.00;;;4.10;;
9934;SDS011;5006;41.828;23.478;2024-03-06T03:35:39;4.30;;;3.78;;
9934;SDS011;5006;41.828;23.478;2024-03-06T03:36:45;5.03;;;3.90;;
9934;SDS011;5006;41.828;23.478;2024-03-06T03:37:50;4.78;;;3.95;;
9934;SDS011;5006;41.828;23.478;2024-03-06T03:38:58;4.57;;;3.72;;
9934;SDS011;5006;41.828;23.478;2024-03-06T03:40:05;5.35;;;3.90;;
9934;SDS011;5006;41.828;23.478;2024-03-06T03:41:12;4.07;;;3.60;;
9934;SDS011;5006;41.828;23.478;2024-03-06T03:42:18;6.10;;;3.88;;
9934;SDS011;5006;41.828;23.478;2024-03-06T03:43:25;5.78;;;3.70;;
9934;SDS011;5006;41.828;23.478;2024-03-06T03:44:31;6.25;;;4.00;;
9934;SDS011;5006;41.828;23.478;2024-03-06T03:45:38;6.07;;;3.80;;
9934;SDS011;5006;41.828;23.478;2024-03-06T03:46:44;4.57;;;3.95;;
9934;SDS011;5006;41.828;23.478;2024-03-06T03:47:50;4.75;;;3.80;;
9934;SDS011;5006;41.828;23.478;2024-03-06T03:48:55;5.65;;;3.70;;
9934;SDS011;5006;41.828;23.478;2024-03-06T03:50:01;4.85;;;3.28;;
9934;SDS011;5006;41.828;23.478;2024-03-06T03:51:08;4.30;;;3.40;;
9934;SDS011;5006;41.828;23.478;2024-03-06T03:52:15;4.07;;;3.40;;
9934;SDS011;5006;41.828;23.478;2024-03-06T03:53:22;4.60;;;3.70;;
9934;SDS011;5006;41.828;23.478;2024-03-06T03:54:30;4.45;;;3.75;;
9934;SDS011;5006;41.828;23.478;2024-03-06T03:55:36;5.00;;;3.72;;
9934;SDS011;5006;41.828;23.478;2024-03-06T03:56:42;4.07;;;3.63;;
9934;SDS011;5006;41.828;23.478;2024-03-06T03:57:49;5.38;;;3.92;;
9934;SDS011;5006;41.828;23.478;2024-03-06T03:58:55;5.78;;;4.20;;
9934;SDS011;5006;41.828;23.478;2024-03-06T04:00:02;8.80;;;6.68;;
9934;SDS011;5006;41.828;23.478;2024-03-06T04:01:16;9.73;;;6.00;;
9934;SDS011;5006;41.828;23.478;2024-03-06T04:02:23;6.22;;;4.00;;
9934;SDS011;5006;41.828;23.478;2024-03-06T04:03:29;5.43;;;4.25;;
9934;SDS011;5006;41.828;23.478;2024-03-06T04:04:36;4.00;;;3.40;;
9934;SDS011;5006;41.828;23.478;2024-03-06T04:05:42;6.22;;;5.00;;
9934;SDS011;5006;41.828;23.478;2024-03-06T04:06:48;6.90;;;4.50;;
9934;SDS011;5006;41.828;23.478;2024-03-06T04:07:53;5.22;;;4.10;;
9934;SDS011;5006;41.828;23.478;2024-03-06T04:09:00;4.28;;;3.85;;
9934;SDS011;5006;41.828;23.478;2024-03-06T04:10:07;5.53;;;4.00;;
9934;SDS011;5006;41.828;23.478;2024-03-06T04:11:16;3.83;;;3.40;;
9934;SDS011;5006;41.828;23.478;2024-03-06T04:12:22;4.32;;;3.70;;
9934;SDS011;5006;41.828;23.478;2024-03-06T04:13:29;3.72;;;3.22;;
9934;SDS011;5006;41.828;23.478;2024-03-06T04:14:34;3.83;;;3.40;;
9934;SDS011;5006;41.828;23.478;2024-03-06T04:15:40;5.22;;;3.30;;
9934;SDS011;5006;41.828;23.478;2024-03-06T04:16:45;4.22;;;3.20;;
9934;SDS011;5006;41.828;23.478;2024-03-06T04:17:53;6.25;;;3.70;;
9934;SDS011;5006;41.828;23.478;2024-03-06T04:18:59;3.30;;;3.00;;
9934;SDS011;5006;41.828;23.478;2024-03-06T04:20:06;4.65;;;3.33;;
9934;SDS011;5006;41.828;23.478;2024-03-06T04:21:12;3.92;;;3.00;;
9934;SDS011;5006;41.828;23.478;2024-03-06T04:22:19;4.80;;;3.42;;
9934;SDS011;5006;41.828;23.478;2024-03-06T04:23:25;4.03;;;3.30;;
9934;SDS011;5006;41.828;23.478;2024-03-06T04:24:32;5.47;;;3.47;;
9934;SDS011;5006;41.828;23.478;2024-03-06T04:25:39;5.85;;;3.58;;
9934;SDS011;5006;41.828;23.478;2024-03-06T04:26:46;5.45;;;3.35;;
9934;SDS011;5006;41.828;23.478;2024-03-06T04:27:51;5.20;;;3.20;;
9934;SDS011;5006;41.828;23.478;2024-03-06T04:28:58;4.15;;;3.38;;
9934;SDS011;5006;41.828;23.478;2024-03-06T04:30:04;3.90;;;3.22;;
9934;SDS011;5006;41.828;23.478;2024-03-06T04:31:12;4.60;;;3.22;;
9934;SDS011;5006;41.828;23.478;2024-03-06T04:32:17;4.47;;;3.35;;
9934;SDS011;5006;41.828;23.478;2024-03-06T04:33:23;4.03;;;3.40;;
9934;SDS011;5006;41.828;23.478;2024-03-06T04:34:28;3.90;;;3.30;;
9934;SDS011;5006;41.828;23.478;2024-03-06T04:35:35;4.13;;;3.58;;
9934;SDS011;5006;41.828;23.478;2024-03-06T04:36:41;4.18;;;3.00;;
9934;SDS011;5006;41.828;23.478;2024-03-06T04:37:47;4.20;;;3.00;;
9934;SDS011;5006;41.828;23.478;2024-03-06T04:38:53;4.18;;;3.20;;
9934;SDS011;5006;41.828;23.478;2024-03-06T04:40:00;5.38;;;4.88;;
9934;SDS011;5006;41.828;23.478;2024-03-06T04:41:08;6.63;;;4.93;;
9934;SDS011;5006;41.828;23.478;2024-03-06T04:42:16;6.35;;;5.05;;
9934;SDS011;5006;41.828;23.478;2024-03-06T04:43:22;7.45;;;5.90;;
9934;SDS011;5006;41.828;23.478;2024-03-06T04:44:28;5.47;;;4.97;;
9934;SDS011;5006;41.828;23.478;2024-03-06T04:45:33;6.20;;;5.60;;
9934;SDS011;5006;41.828;23.478;2024-03-06T04:46:39;6.95;;;5.78;;
9934;SDS011;5006;41.828;23.478;2024-03-06T04:47:44;5.93;;;5.15;;
9934;SDS011;5006;41.828;23.478;2024-03-06T04:48:51;6.15;;;4.93;;
9934;SDS011;5006;41.828;23.478;2024-03-06T04:49:56;7.00;;;5.80;;
9934;SDS011;5006;41.828;23.478;2024-03-06T04:51:04;6.25;;;5.30;;
9934;SDS011;5006;41.828;23.478;2024-03-06T04:52:09;7.47;;;5.25;;
9934;SDS011;5006;41.828;23.478;2024-03-06T04:53:16;4.72;;;4.22;;
9934;SDS011;5006;41.828;23.478;2024-03-06T04:54:22;6.28;;;4.65;;
9934;SDS011;5006;41.828;23.478;2024-03-06T04:55:29;5.07;;;4.32;;
9934;SDS011;5006;41.828;23.478;2024-03-06T04:56:37;4.57;;;3.42;;
9934;SDS011;5006;41.828;23.478;2024-03-06T04:57:43;3.88;;;3.42;;
9934;SDS011;5006;41.828;23.478;2024-03-06T04:58:50;4.25;;;3.67;;
9934;SDS011;5006;41.828;23.478;2024-03-06T04:59:58;5.95;;;3.80;;
9934;SDS011;5006;41.828;23.478;2024-03-06T05:01:04;4.13;;;3.50;;
9934;SDS011;5006;41.828;23.478;2024-03-06T05:02:11;3.20;;;2.90;;
9934;SDS011;5006;41.828;23.478;2024-03-06T05:03:16;4.55;;;3.60;;
9934;SDS011;5006;41.828;23.478;2024-03-06T05:04:23;3.80;;;3.40;;
9934;SDS011;5006;41.828;23.478;2024-03-06T05:05:28;3.63;;;3.30;;
9934;SDS011;5006;41.828;23.478;2024-03-06T05:06:35;5.10;;;3.63;;
9934;SDS011;5006;41.828;23.478;2024-03-06T05:07:40;5.35;;;3.60;;
9934;SDS011;5006;41.828;23.478;2024-03-06T05:08:46;4.28;;;3.88;;
9934;SDS011;5006;41.828;23.478;2024-03-06T05:09:51;4.18;;;3.50;;
9934;SDS011;5006;41.828;23.478;2024-03-06T05:10:59;5.38;;;4.07;;
9934;SDS011;5006;41.828;23.478;2024-03-06T05:12:08;4.70;;;3.90;;
9934;SDS011;5006;41.828;23.478;2024-03-06T05:13:14;5.32;;;4.00;;
9934;SDS011;5006;41.828;23.478;2024-03-06T05:14:20;6.25;;;4.80;;
9934;SDS011;5006;41.828;23.478;2024-03-06T05:15:25;4.57;;;3.80;;
9934;SDS011;5006;41.828;23.478;2024-03-06T05:16:32;5.82;;;4.32;;
9934;SDS011;5006;41.828;23.478;2024-03-06T05:17:38;4.65;;;3.55;;
9934;SDS011;5006;41.828;23.478;2024-03-06T05:18:45;5.45;;;4.05;;
9934;SDS011;5006;41.828;23.478;2024-03-06T05:19:51;4.75;;;3.75;;
9934;SDS011;5006;41.828;23.478;2024-03-06T05:20:59;5.05;;;3.75;;
9934;SDS011;5006;41.828;23.478;2024-03-06T05:22:05;7.22;;;4.68;;
9934;SDS011;5006;41.828;23.478;2024-03-06T05:23:11;4.30;;;3.78;;
9934;SDS011;5006;41.828;23.478;2024-03-06T05:24:17;5.55;;;4.18;;
9934;SDS011;5006;41.828;23.478;2024-03-06T05:25:23;4.93;;;4.35;;
9934;SDS011;5006;41.828;23.478;2024-03-06T05:26:29;6.53;;;5.15;;
9934;SDS011;5006;41.828;23.478;2024-03-06T05:27:38;6.85;;;4.65;;
9934;SDS011;5006;41.828;23.478;2024-03-06T05:28:43;7.30;;;5.20;;
9934;SDS011;5006;41.828;23.478;2024-03-06T05:29:50;6.10;;;5.22;;
9934;SDS011;5006;41.828;23.478;2024-03-06T05:30:56;5.80;;;5.20;;
9934;SDS011;5006;41.828;23.478;2024-03-06T05:32:04;6.30;;;4.93;;
9934;SDS011;5006;41.828;23.478;2024-03-06T05:33:09;7.25;;;6.32;;
9934;SDS011;5006;41.828;23.478;2024-03-06T05:34:16;9.40;;;7.00;;
9934;SDS011;5006;41.828;23.478;2024-03-06T05:35:22;7.10;;;6.25;;
9934;SDS011;5006;41.828;23.478;2024-03-06T05:36:29;8.88;;;7.53;;
9934;SDS011;5006;41.828;23.478;2024-03-06T05:37:35;10.48;;;7.85;;
9934;SDS011;5006;41.828;23.478;2024-03-06T05:38:42;9.13;;;7.75;;
9934;SDS011;5006;41.828;23.478;2024-03-06T05:39:48;9.77;;;7.93;;
9934;SDS011;5006;41.828;23.478;2024-03-06T05:40:55;10.20;;;8.48;;
9934;SDS011;5006;41.828;23.478;2024-03-06T05:42:01;15.43;;;13.35;;
9934;SDS011;5006;41.828;23.478;2024-03-06T05:43:10;8.48;;;6.95;;
9934;SDS011;5006;41.828;23.478;2024-03-06T05:44:15;22.88;;;18.80;;
9934;SDS011;5006;41.828;23.478;2024-03-06T05:45:21;15.73;;;14.18;;
9934;SDS011;5006;41.828;23.478;2024-03-06T05:46:26;8.07;;;7.28;;
9934;SDS011;5006;41.828;23.478;2024-03-06T05:47:32;10.45;;;7.10;;
9934;SDS011;5006;41.828;23.478;2024-03-06T05:48:37;9.65;;;8.25;;
9934;SDS011;5006;41.828;23.478;2024-03-06T05:49:43;11.45;;;10.25;;
9934;SDS011;5006;41.828;23.478;2024-03-06T05:50:49;10.82;;;9.70;;
9934;SDS011;5006;41.828;23.478;2024-03-06T05:51:56;12.38;;;10.45;;
9934;SDS011;5006;41.828;23.478;2024-03-06T05:53:02;10.10;;;9.02;;
9934;SDS011;5006;41.828;23.478;2024-03-06T05:54:09;9.32;;;8.23;;
9934;SDS011;5006;41.828;23.478;2024-03-06T05:55:14;11.82;;;9.40;;
9934;SDS011;5006;41.828;23.478;2024-03-06T05:56:20;10.95;;;9.38;;
9934;SDS011;5006;41.828;23.478;2024-03-06T05:57:25;15.35;;;13.23;;
9934;SDS011;5006;41.828;23.478;2024-03-06T05:58:32;92.47;;;67.50;;
9934;SDS011;5006;41.828;23.478;2024-03-06T05:59:39;95.65;;;75.88;;
9934;SDS011;5006;41.828;23.478;2024-03-06T06:00:45;91.43;;;74.88;;
9934;SDS011;5006;41.828;23.478;2024-03-06T06:01:50;80.40;;;60.67;;
9934;SDS011;5006;41.828;23.478;2024-03-06T06:02:56;67.50;;;54.40;;
9934;SDS011;5006;41.828;23.478;2024-03-06T06:04:02;72.10;;;59.42;;
9934;SDS011;5006;41.828;23.478;2024-03-06T06:05:08;77.30;;;63.33;;
9934;SDS011;5006;41.828;23.478;2024-03-06T06:06:14;78.50;;;62.72;;
9934;SDS011;5006;41.828;23.478;2024-03-06T06:07:21;75.03;;;61.08;;
9934;SDS011;5006;41.828;23.478;2024-03-06T06:08:27;84.80;;;69.22;;
9934;SDS011;5006;41.828;23.478;2024-03-06T06:09:34;87.90;;;71.00;;
9934;SDS011;5006;41.828;23.478;2024-03-06T06:10:39;88.30;;;68.55;;
9934;SDS011;5006;41.828;23.478;2024-03-06T06:11:45;80.57;;;67.95;;
9934;SDS011;5006;41.828;23.478;2024-03-06T06:12:50;81.03;;;68.53;;
9934;SDS011;5006;41.828;23.478;2024-03-06T06:13:59;93.20;;;76.93;;
9934;SDS011;5006;41.828;23.478;2024-03-06T06:15:05;82.10;;;64.78;;
9934;SDS011;5006;41.828;23.478;2024-03-06T06:16:13;78.65;;;61.58;;
9934;SDS011;5006;41.828;23.478;2024-03-06T06:17:20;76.40;;;57.92;;
9934;SDS011;5006;41.828;23.478;2024-03-06T06:18:27;78.70;;;57.05;;
9934;SDS011;5006;41.828;23.478;2024-03-06T06:19:32;74.25;;;60.05;;
9934;SDS011;5006;41.828;23.478;2024-03-06T06:20:40;71.80;;;57.85;;
9934;SDS011;5006;41.828;23.478;2024-03-06T06:21:46;77.10;;;55.97;;
9934;SDS011;5006;41.828;23.478;2024-03-06T06:22:53;75.18;;;59.90;;
9934;SDS011;5006;41.828;23.478;2024-03-06T06:23:58;83.78;;;61.53;;
9934;SDS011;5006;41.828;23.478;2024-03-06T06:25:05;66.15;;;52.45;;
9934;SDS011;5006;41.828;23.478;2024-03-06T06:26:12;51.80;;;42.88;;
9934;SDS011;5006;41.828;23.478;2024-03-06T06:27:20;42.47;;;34.40;;
9934;SDS011;5006;41.828;23.478;2024-03-06T06:28:26;44.03;;;35.75;;
9934;SDS011;5006;41.828;23.478;2024-03-06T06:29:34;45.05;;;37.33;;
9934;SDS011;5006;41.828;23.478;2024-03-06T06:30:39;45.22;;;36.45;;
9934;SDS011;5006;41.828;23.478;2024-03-06T06:31:46;46.55;;;36.67;;
9934;SDS011;5006;41.828;23.478;2024-03-06T06:32:52;36.85;;;31.92;;
9934;SDS011;5006;41.828;23.478;2024-03-06T06:33:58;40.53;;;33.13;;
9934;SDS011;5006;41.828;23.478;2024-03-06T06:35:04;39.17;;;32.53;;
9934;SDS011;5006;41.828;23.478;2024-03-06T06:36:11;35.50;;;29.05;;
9934;SDS011;5006;41.828;23.478;2024-03-06T06:37:17;33.47;;;28.25;;
9934;SDS011;5006;41.828;23.478;2024-03-06T06:38:24;36.03;;;29.35;;
9934;SDS011;5006;41.828;23.478;2024-03-06T06:39:30;35.38;;;28.88;;
9934;SDS011;5006;41.828;23.478;2024-03-06T06:40:39;38.38;;;30.10;;
9934;SDS011;5006;41.828;23.478;2024-03-06T06:41:45;38.13;;;29.75;;
9934;SDS011;5006;41.828;23.478;2024-03-06T06:42:52;37.85;;;31.05;;
9934;SDS011;5006;41.828;23.478;2024-03-06T06:43:57;34.95;;;29.20;;
9934;SDS011;5006;41.828;23.478;2024-03-06T06:45:05;37.78;;;29.90;;